Time;durP1;ratioP1;P1;durP2;ratioP2;P2;SDS_P1;SDS_P2;PMS_P1;PMS_P2;Temp;Humidity;BMP_temperature;BMP_pressure;BME280_temperature;BME280_humidity;BME280_pressure;Samples;Min_cycle;Max_cycle;Signal;HPM_P1;HPM_P2
2021/10/03 00:03:11;;;;;;;;;;;12.90;99.90;;;11.76;93.49;95077.91;10521323;28;2031;-74
2021/10/03 00:08:13;;;;;;;;;;;12.90;99.90;;;11.59;93.46;95085.78;10515210;28;2115;-74
2021/10/03 00:13:16;;;;;;;;;;;12.80;99.90;;;11.49;93.51;95085.94;10525968;28;1961;-75
2021/10/03 00:18:19;;;;;;;;;;;12.70;99.90;;;11.48;92.79;95084.34;10520465;28;2089;-74
2021/10/03 00:23:22;;;;;;;;;;;12.70;99.90;;;11.37;93.92;95079.13;10528095;28;1985;-74
2021/10/03 00:28:25;;;;;;;;;;;12.60;99.90;;;11.47;93.84;95072.78;10520108;28;2094;-74
2021/10/03 00:33:28;;;;;;;;;;;12.60;99.90;;;11.44;92.88;95064.50;10525885;28;1930;-74
2021/10/03 00:38:30;;;;;;;;;;;12.60;99.90;;;11.50;93.02;95066.78;10523561;28;1921;-73
2021/10/03 00:43:33;;;;;;;;;;;12.60;99.90;;;11.59;91.53;95051.56;10527243;28;1977;-74
2021/10/03 00:48:36;;;;;;;;;;;12.70;99.90;;;11.68;89.92;95054.38;10525821;28;1973;-74
2021/10/03 00:53:39;;;;;;;;;;;12.70;99.90;;;11.47;90.12;95045.88;10524030;28;2092;-73
2021/10/03 00:58:42;;;;;;;;;;;12.70;99.90;;;11.45;90.53;95041.84;10530532;28;1974;-75
2021/10/03 01:03:45;;;;;;;;;;;12.60;99.90;;;11.29;89.84;95042.13;10530845;28;1986;-74
2021/10/03 01:08:48;;;;;;;;;;;12.60;99.90;;;11.33;89.61;95037.78;10533276;28;1969;-74
2021/10/03 01:14:01;;;;;;;;;;;12.50;99.90;;;11.34;89.67;95033.97;10528984;28;2017;-74
2021/10/03 01:19:24;;;;;;;;;;;12.50;99.90;;;11.22;89.88;95025.59;10527845;28;2181;-75
2021/10/03 01:24:27;;;;;;;;;;;12.50;99.90;;;11.31;88.75;95021.09;10520654;28;1967;-75
2021/10/03 01:29:30;;;;;;;;;;;12.40;99.90;;;11.30;88.43;95022.22;10534973;28;2102;-75
2021/10/03 01:34:33;;;;;;;;;;;12.40;99.90;;;11.27;88.16;95011.25;10525097;28;2026;-74
2021/10/03 01:39:36;;;;;;;;;;;12.40;99.90;;;11.23;87.54;95016.41;10527101;28;1986;-75
2021/10/03 01:44:38;;;;;;;;;;;12.40;99.90;;;11.18;87.56;95013.00;10534035;28;2062;-75
2021/10/03 01:49:41;;;;;;;;;;;12.40;99.90;;;11.10;87.60;95004.53;10532593;28;2035;-74
2021/10/03 01:54:44;;;;;;;;;;;12.30;99.90;;;11.16;88.19;95005.25;10528787;28;2066;-74
2021/10/03 01:59:47;;;;;;;;;;;12.30;99.90;;;11.16;88.27;94996.38;10531232;28;1947;-75
2021/10/03 02:04:50;;;;;;;;;;;12.30;99.90;;;11.00;88.31;94987.75;10530987;28;2064;-75
2021/10/03 02:09:52;;;;;;;;;;;12.30;99.90;;;11.12;87.44;94992.69;10535879;28;2219;-74
2021/10/03 02:14:55;;;;;;;;;;;12.30;99.90;;;11.12;86.64;94984.59;10548402;28;2016;-74
2021/10/03 02:19:58;;;;;;;;;;;12.30;99.90;;;11.19;86.58;94985.81;10556072;28;2061;-74
2021/10/03 02:25:01;;;;;;;;;;;12.30;99.90;;;11.12;86.53;94989.97;10545644;28;2049;-75
2021/10/03 02:30:04;;;;;;;;;;;12.30;99.90;;;10.93;88.07;94981.97;10542769;28;2021;-75
2021/10/03 02:35:06;;;;;;;;;;;12.20;99.90;;;10.91;88.31;94984.16;10538907;28;2080;-75
2021/10/03 02:40:09;;;;;;;;;;;12.10;99.90;;;10.75;88.85;94987.13;10528981;28;2045;-74
2021/10/03 02:45:12;;;;;;;;;;;12.00;99.90;;;10.77;88.35;94989.50;10534821;28;1999;-74
2021/10/03 02:50:15;;;;;;;;;;;12.00;99.90;;;10.73;88.93;94975.84;10531189;28;2011;-75
2021/10/03 02:55:18;;;;;;;;;;;11.90;99.90;;;10.63;89.14;94967.94;10529157;28;2066;-73
2021/10/03 03:00:21;;;;;;;;;;;11.90;99.90;;;10.58;89.29;94973.41;10529957;28;2093;-73
2021/10/03 03:05:24;;;;;;;;;;;11.80;99.90;;;10.45;90.26;94958.81;10527893;28;1986;-73
2021/10/03 03:10:26;;;;;;;;;;;11.70;99.90;;;10.34;89.90;94959.25;10522552;28;2073;-74
2021/10/03 03:15:29;;;;;;;;;;;11.60;99.90;;;10.28;90.21;94959.31;10524460;28;2061;-74
2021/10/03 03:20:32;;;;;;;;;;;11.50;99.90;;;10.22;90.28;94955.09;10524680;28;2065;-74
2021/10/03 03:25:35;;;;;;;;;;;11.40;99.90;;;10.35;91.56;94950.09;10526666;28;2039;-74
2021/10/03 03:30:38;;;;;;;;;;;11.50;99.90;;;10.38;89.56;94949.53;10526798;28;2081;-74
2021/10/03 03:35:41;;;;;;;;;;;11.50;99.90;;;10.34;90.29;94943.13;10524414;28;1994;-75
2021/10/03 03:40:44;;;;;;;;;;;11.50;99.90;;;10.26;90.44;94936.53;10523068;28;2116;-75
2021/10/03 03:45:47;;;;;;;;;;;11.50;99.90;;;10.31;90.51;94943.72;10523633;28;1970;-74
2021/10/03 03:50:50;;;;;;;;;;;11.50;99.90;;;10.17;90.49;94944.41;10524106;28;2078;-75
2021/10/03 03:55:52;;;;;;;;;;;11.40;99.90;;;10.15;89.46;94937.75;10523473;28;1975;-74
2021/10/03 04:00:55;;;;;;;;;;;11.40;99.90;;;10.10;90.79;94929.75;10522170;28;2076;-75
2021/10/03 04:05:58;;;;;;;;;;;11.30;99.90;;;10.13;90.31;94929.19;10525862;28;2434;-75
2021/10/03 04:11:01;;;;;;;;;;;11.30;99.90;;;10.19;90.24;94936.09;10526292;28;2010;-75
2021/10/03 04:16:04;;;;;;;;;;;11.30;99.90;;;10.32;89.59;94934.59;10521719;28;2096;-74
2021/10/03 04:21:07;;;;;;;;;;;11.30;99.90;;;10.34;88.99;94927.81;10529453;28;2073;-74
2021/10/03 04:26:12;;;;;;;;;;;11.40;99.90;;;10.25;90.04;94933.06;10524641;28;2007;-75
2021/10/03 04:31:15;;;;;;;;;;;11.40;99.90;;;10.16;89.58;94923.22;10530706;28;2114;-74
2021/10/03 04:36:18;;;;;;;;;;;11.40;99.90;;;10.22;89.68;94925.53;10531747;28;2017;-74
2021/10/03 04:41:21;;;;;;;;;;;11.40;99.90;;;10.39;87.47;94919.69;10536560;28;2192;-75
2021/10/03 04:46:24;;;;;;;;;;;11.40;99.90;;;10.36;88.20;94930.22;10530622;28;2005;-75
2021/10/03 04:51:26;;;;;;;;;;;11.40;99.90;;;10.38;87.32;94922.66;10534882;28;2088;-74
2021/10/03 04:56:29;;;;;;;;;;;11.50;99.90;;;10.33;86.47;94928.91;10528398;28;1964;-73
2021/10/03 05:01:32;;;;;;;;;;;11.50;99.90;;;10.43;86.34;94925.25;10535157;28;2048;-74
2021/10/03 05:06:35;;;;;;;;;;;11.50;99.90;;;10.55;85.53;94922.91;10525868;28;2379;-74
2021/10/03 05:11:38;;;;;;;;;;;11.60;99.90;;;10.51;84.69;94920.03;10535132;28;2137;-75
2021/10/03 05:16:41;;;;;;;;;;;11.60;99.90;;;10.60;85.28;94930.91;10537596;28;2123;-75
2021/10/03 05:21:44;;;;;;;;;;;11.60;99.90;;;10.59;83.10;94923.13;10540030;28;2033;-73
2021/10/03 05:26:46;;;;;;;;;;;11.70;99.90;;;10.64;83.16;94937.28;10579051;28;1971;-74
2021/10/03 05:31:49;;;;;;;;;;;11.70;99.90;;;10.77;81.10;94923.09;10556290;28;1994;-75
2021/10/03 05:36:52;;;;;;;;;;;11.80;99.90;;;10.84;80.39;94920.03;10532537;28;2056;-74
2021/10/03 05:41:55;;;;;;;;;;;11.90;99.90;;;10.98;78.79;94930.78;10531865;28;2002;-74
2021/10/03 05:46:58;;;;;;;;;;;11.90;99.90;;;11.05;81.00;94925.81;10540137;28;1831;-73
2021/10/03 05:52:01;;;;;;;;;;;12.00;99.90;;;11.09;80.23;94916.88;10531056;28;1991;-73
2021/10/03 05:57:04;;;;;;;;;;;12.10;99.90;;;11.34;81.29;94929.06;10533901;28;1928;-73
2021/10/03 06:02:07;;;;;;;;;;;12.20;99.90;;;11.53;80.14;94918.19;10542651;28;1850;-73
2021/10/03 06:07:10;;;;;;;;;;;12.40;99.90;;;11.69;78.66;94907.88;10540145;28;1862;-73
2021/10/03 06:12:13;;;;;;;;;;;12.50;99.90;;;11.94;75.91;94903.09;10549154;28;1999;-73
2021/10/03 06:17:15;;;;;;;;;;;12.70;99.90;;;12.36;73.22;94902.66;10532118;28;2005;-74
2021/10/03 06:22:21;;;;;;;;;;;13.00;99.90;;;12.54;72.27;94900.91;10529417;28;1891;-73
2021/10/03 06:27:24;;;;;;;;;;;13.30;99.90;;;12.78;71.99;94905.16;10531789;28;1938;-75
2021/10/03 06:32:27;;;;;;;;;;;13.50;99.90;;;12.94;70.87;94903.66;10533225;28;1918;-73
2021/10/03 06:37:30;;;;;;;;;;;13.60;99.90;;;13.20;69.44;94907.31;10530630;28;1857;-74
2021/10/03 06:42:33;;;;;;;;;;;13.90;99.90;;;13.63;67.62;94903.19;10525613;28;1881;-73
2021/10/03 06:47:35;;;;;;;;;;;14.20;99.90;;;13.94;65.61;94908.50;10527493;28;1849;-73
2021/10/03 06:52:38;;;;;;;;;;;14.50;99.90;;;14.31;64.36;94905.19;10527761;28;1918;-74
2021/10/03 06:57:41;;;;;;;;;;;14.90;99.90;;;14.48;63.86;94901.72;10523460;28;1876;-74
2021/10/03 07:02:44;;;;;;;;;;;15.10;99.90;;;14.50;64.13;94898.69;10527778;28;1955;-74
2021/10/03 07:07:47;;;;;;;;;;;15.20;99.90;;;14.63;63.99;94900.41;10527446;28;1900;-74
2021/10/03 07:12:50;;;;;;;;;;;15.30;99.90;;;14.74;63.88;94909.00;10528347;28;1905;-75
2021/10/03 07:17:53;;;;;;;;;;;15.40;99.90;;;14.95;63.02;94907.22;10527079;28;1877;-75
2021/10/03 07:22:56;;;;;;;;;;;15.60;99.90;;;15.18;62.62;94915.91;10529426;28;1943;-74
2021/10/03 07:27:59;;;;;;;;;;;15.90;99.90;;;15.46;61.82;94916.31;10523344;28;1923;-75
2021/10/03 07:33:02;;;;;;;;;;;16.00;99.90;;;15.66;59.98;94902.06;10525595;28;1917;-73
2021/10/03 07:38:05;;;;;;;;;;;16.30;99.90;;;15.84;60.18;94908.19;10521083;28;2066;-75
2021/10/03 07:43:08;;;;;;;;;;;16.50;99.90;;;16.24;59.10;94909.69;10522221;28;1951;-75
2021/10/03 07:48:11;;;;;;;;;;;16.80;99.90;;;16.41;58.82;94896.78;10523278;28;1899;-75
2021/10/03 07:53:14;;;;;;;;;;;17.10;99.90;;;16.65;57.66;94896.06;10526122;28;1914;-75
2021/10/03 07:58:16;;;;;;;;;;;17.20;99.90;;;17.11;56.45;94905.06;10525660;28;1939;-75
2021/10/03 08:03:21;;;;;;;;;;;17.60;99.90;;;17.28;56.62;94912.25;10522353;28;1845;-74
2021/10/03 08:08:24;;;;;;;;;;;17.80;99.90;;;17.47;55.94;94917.16;10525783;28;1881;-75
2021/10/03 08:13:26;;;;;;;;;;;18.00;99.90;;;17.70;55.11;94918.31;10524981;28;1860;-74
2021/10/03 08:18:29;;;;;;;;;;;18.20;99.90;;;18.01;54.36;94923.19;10518524;28;2140;-74
2021/10/03 08:23:32;;;;;;;;;;;18.50;99.90;;;18.31;53.54;94922.91;10521762;28;1864;-74
2021/10/03 08:28:35;;;;;;;;;;;18.70;99.90;;;18.61;51.84;94915.25;10522867;28;1985;-76
2021/10/03 08:33:38;;;;;;;;;;;19.10;99.90;;;18.91;51.06;94913.00;10524741;28;1993;-76
2021/10/03 08:38:41;;;;;;;;;;;19.40;99.90;;;19.20;49.49;94909.09;10523073;28;1593;-75
2021/10/03 08:43:44;;;;;;;;;;;19.60;99.90;;;19.42;48.85;94911.25;10531848;28;1884;-76
2021/10/03 08:48:47;;;;;;;;;;;19.90;99.90;;;19.69;48.83;94903.38;10525255;28;1913;-73
2021/10/03 08:53:50;;;;;;;;;;;20.10;99.90;;;19.82;47.77;94907.59;10524641;28;2010;-75
2021/10/03 08:58:53;;;;;;;;;;;20.40;99.90;;;20.11;46.70;94897.34;10526519;28;1872;-75
2021/10/03 09:04:00;;;;;;;;;;;20.60;99.90;;;20.15;47.52;94898.22;10520391;28;1841;-75
2021/10/03 09:09:03;;;;;;;;;;;20.80;99.90;;;20.42;47.16;94897.28;10519750;28;1918;-76
2021/10/03 09:14:06;;;;;;;;;;;21.00;99.90;;;20.71;46.66;94892.41;10532339;28;1852;-74
2021/10/03 09:19:09;;;;;;;;;;;21.10;99.90;;;20.85;43.94;94889.97;10536862;28;1939;-75
2021/10/03 09:24:11;;;;;;;;;;;21.30;99.90;;;21.16;46.11;94896.41;10530297;28;1830;-76
2021/10/03 09:29:14;;;;;;;;;;;21.60;99.90;;;21.10;44.92;94893.16;10532053;28;1976;-76
2021/10/03 09:34:17;;;;;;;;;;;21.70;99.90;;;21.41;41.65;94886.75;10521004;28;1873;-75
2021/10/03 09:39:20;;;;;;;;;;;21.80;99.90;;;21.55;40.22;94878.78;10530076;28;1864;-75
2021/10/03 09:44:23;;;;;;;;;;;22.00;99.90;;;21.74;39.08;94882.59;10535157;28;1809;-76
2021/10/03 09:49:26;;;;;;;;;;;22.20;99.90;;;22.03;38.99;94881.88;10529410;28;1955;-75
2021/10/03 09:54:29;;;;;;;;;;;22.50;99.90;;;22.36;38.62;94867.53;10529678;28;1817;-76
2021/10/03 09:59:31;;;;;;;;;;;22.80;99.90;;;22.43;37.77;94868.78;10537130;28;1939;-75
2021/10/03 10:04:34;;;;;;;;;;;22.90;99.90;;;22.56;38.33;94867.38;10527325;28;1836;-76
2021/10/03 10:09:37;;;;;;;;;;;23.10;99.90;;;22.72;38.32;94870.72;10531282;28;1987;-76
2021/10/03 10:14:40;;;;;;;;;;;23.20;99.90;;;22.95;37.01;94862.41;10528681;28;1940;-75
2021/10/03 10:19:43;;;;;;;;;;;23.40;99.90;;;22.90;36.80;94855.31;10529202;28;1880;-74
2021/10/03 10:24:46;;;;;;;;;;;23.40;99.90;;;22.91;37.88;94856.88;10530056;28;1825;-75
2021/10/03 10:29:49;;;;;;;;;;;23.40;99.90;;;23.04;37.83;94854.69;10531315;28;1918;-74
2021/10/03 10:34:55;;;;;;;;;;;23.60;99.90;;;23.30;36.19;94850.22;10525521;28;1880;-74
2021/10/03 10:39:58;;;;;;;;;;;23.80;99.90;;;23.44;36.56;94850.34;10530464;28;2095;-75
2021/10/03 10:45:01;;;;;;;;;;;24.00;99.90;;;23.30;36.49;94844.75;10531338;28;1865;-74
2021/10/03 10:50:05;;;;;;;;;;;23.90;99.90;;;23.51;36.78;94836.69;10527201;28;1917;-74
2021/10/03 10:55:09;;;;;;;;;;;24.10;99.90;;;23.79;34.98;94832.63;10529369;28;1868;-75
2021/10/03 11:00:12;;;;;;;;;;;24.20;99.40;;;23.80;35.07;94834.22;10518212;28;2120;-76
2021/10/03 11:05:15;;;;;;;;;;;24.40;99.30;;;24.12;34.34;94835.22;10519887;28;1927;-75
2021/10/03 11:10:18;;;;;;;;;;;24.50;97.00;;;24.23;34.23;94830.56;10526970;28;2242;-74
2021/10/03 11:15:21;;;;;;;;;;;24.70;96.60;;;24.36;33.18;94827.53;10528352;28;1888;-76
2021/10/03 11:20:23;;;;;;;;;;;24.80;95.60;;;24.83;32.42;94821.06;10528064;28;2038;-74
2021/10/03 11:25:29;;;;;;;;;;;25.10;93.90;;;24.79;33.14;94823.78;10526647;28;1859;-74
2021/10/03 11:30:32;;;;;;;;;;;25.30;93.80;;;24.77;33.30;94817.91;10523490;28;1981;-75
2021/10/03 11:35:38;;;;;;;;;;;25.40;93.30;;;24.77;33.55;94809.66;10521878;28;1932;-75
2021/10/03 11:40:41;;;;;;;;;;;25.30;92.50;;;24.85;34.02;94820.66;10525718;28;1940;-75
2021/10/03 11:45:44;;;;;;;;;;;25.50;91.80;;;24.86;32.60;94803.78;10535822;28;1928;-74
2021/10/03 11:50:50;;;;;;;;;;;25.50;89.90;;;24.96;32.25;94800.28;10530194;28;1973;-75
2021/10/03 11:55:53;;;;;;;;;;;25.50;88.70;;;25.08;30.73;94803.88;10524001;28;1728;-74
2021/10/03 12:00:57;;;;;;;;;;;25.60;87.00;;;25.09;32.03;94803.47;10529750;28;1915;-74
2021/10/03 12:06:00;;;;;;;;;;;25.70;87.40;;;25.60;31.16;94794.09;10524255;28;2387;-75
2021/10/03 12:11:03;;;;;;;;;;;25.90;86.70;;;25.80;30.78;94791.75;10512758;28;2191;-75
2021/10/03 12:16:07;;;;;;;;;;;26.20;86.00;;;25.60;32.30;94794.09;10520715;28;1887;-75
2021/10/03 12:21:10;;;;;;;;;;;26.30;86.20;;;25.65;32.11;94796.44;10524109;28;1948;-74
2021/10/03 12:26:13;;;;;;;;;;;26.30;85.50;;;25.81;31.63;94783.09;10522493;28;1877;-75
2021/10/03 12:31:15;;;;;;;;;;;26.40;85.30;;;25.61;32.88;94790.94;10516424;28;1918;-75
2021/10/03 12:36:18;;;;;;;;;;;26.30;86.00;;;25.64;32.19;94783.88;10523591;28;1841;-75
2021/10/03 12:41:21;;;;;;;;;;;26.20;84.90;;;25.33;32.01;94780.72;10514523;28;1963;-75
2021/10/03 12:46:24;;;;;;;;;;;26.10;84.20;;;25.24;31.03;94782.28;10523182;28;1923;-76
2021/10/03 12:51:27;;;;;;;;;;;26.00;82.50;;;25.08;31.81;94790.13;10530227;28;1918;-75
2021/10/03 12:56:30;;;;;;;;;;;25.90;83.10;;;24.83;32.06;94785.34;10531698;28;1864;-76
2021/10/03 13:01:32;;;;;;;;;;;25.70;82.60;;;24.79;32.19;94768.81;10535049;28;1942;-76
2021/10/03 13:06:35;;;;;;;;;;;25.60;82.30;;;24.73;32.99;94769.59;10534298;28;1832;-76
2021/10/03 13:11:38;;;;;;;;;;;25.50;83.30;;;24.55;33.10;94764.03;10535293;28;1910;-75
2021/10/03 13:16:41;;;;;;;;;;;25.40;83.20;;;24.43;33.36;94767.13;10534226;28;1925;-76
2021/10/03 13:21:44;;;;;;;;;;;25.30;82.90;;;24.40;32.35;94765.16;10531736;28;1830;-75
2021/10/03 13:26:47;;;;;;;;;;;25.20;82.30;;;24.42;31.38;94768.31;10537522;28;1943;-76
2021/10/03 13:31:49;;;;;;;;;;;25.10;81.00;;;24.49;31.80;94771.06;10531105;28;1983;-75
2021/10/03 13:36:53;;;;;;;;;;;25.20;81.00;;;24.52;32.06;94770.31;10534240;28;1892;-75
2021/10/03 13:41:55;;;;;;;;;;;25.20;80.70;;;24.52;31.76;94759.34;10530869;28;1880;-75
2021/10/03 13:46:58;;;;;;;;;;;25.20;80.80;;;24.74;31.65;94766.44;10532899;28;1759;-75
2021/10/03 13:52:01;;;;;;;;;;;25.30;80.60;;;24.89;31.02;94766.50;10547277;28;1917;-75
2021/10/03 13:57:04;;;;;;;;;;;25.40;79.70;;;25.02;32.23;94770.44;10530199;28;1864;-75
2021/10/03 14:02:07;;;;;;;;;;;25.60;80.70;;;25.18;32.24;94768.13;10525280;28;1864;-74
2021/10/03 14:07:10;;;;;;;;;;;25.70;80.60;;;25.17;32.18;94766.56;10521692;28;1877;-73
2021/10/03 14:12:12;;;;;;;;;;;25.80;80.60;;;25.23;32.08;94758.72;10527765;28;1987;-76
2021/10/03 14:17:15;;;;;;;;;;;25.80;80.00;;;25.13;32.88;94754.78;10524051;28;1837;-76
2021/10/03 14:22:18;;;;;;;;;;;25.90;80.70;;;25.18;32.10;94756.34;10528292;28;2035;-75
2021/10/03 14:27:21;;;;;;;;;;;25.80;80.20;;;25.24;31.83;94752.03;10527923;28;1868;-74
2021/10/03 14:32:24;;;;;;;;;;;25.90;79.80;;;25.27;32.16;94763.03;10523954;28;1890;-74
2021/10/03 14:37:27;;;;;;;;;;;25.90;79.60;;;25.24;31.71;94766.56;10521458;28;2027;-74
2021/10/03 14:42:29;;;;;;;;;;;25.90;79.40;;;25.12;33.76;94764.19;10533181;28;1872;-74
2021/10/03 14:47:32;;;;;;;;;;;25.90;80.80;;;24.88;36.35;94762.19;10529381;27;1756;-74
2021/10/03 14:52:35;;;;;;;;;;;25.80;83.50;;;24.60;36.86;94769.16;10533504;28;1973;-74
2021/10/03 14:57:38;;;;;;;;;;;25.50;84.40;;;24.66;38.38;94764.88;10530188;28;1836;-75
2021/10/03 15:02:41;;;;;;;;;;;25.50;86.70;;;24.67;40.59;94763.69;10529034;28;1844;-76
2021/10/03 15:07:44;;;;;;;;;;;25.50;89.50;;;24.68;41.77;94767.22;10526294;28;1791;-74
2021/10/03 15:12:47;;;;;;;;;;;25.40;90.90;;;24.82;38.33;94769.25;10520678;28;1930;-72
2021/10/03 15:17:50;;;;;;;;;;;25.50;88.60;;;24.91;35.83;94767.66;10520186;28;2035;-72
2021/10/03 15:22:53;;;;;;;;;;;25.50;85.50;;;24.71;36.51;94769.97;10529234;28;1846;-72
2021/10/03 15:27:55;;;;;;;;;;;25.60;85.30;;;24.68;34.65;94779.00;10518792;28;1979;-73
2021/10/03 15:32:58;;;;;;;;;;;25.40;83.40;;;24.50;35.35;94776.22;10523115;28;1943;-72
2021/10/03 15:38:02;;;;;;;;;;;25.30;83.00;;;24.30;35.44;94780.38;10525585;28;1927;-73
2021/10/03 15:43:05;;;;;;;;;;;25.20;82.90;;;24.21;35.54;94780.75;10528516;28;1904;-72
2021/10/03 15:48:08;;;;;;;;;;;25.00;82.40;;;24.13;35.91;94787.38;10523929;28;1876;-71
2021/10/03 15:53:11;;;;;;;;;;;25.00;83.40;;;24.00;36.65;94788.88;10529483;28;1982;-73
2021/10/03 15:58:15;;;;;;;;;;;24.90;84.00;;;23.96;37.18;94796.28;10527888;28;1932;-73
2021/10/03 16:03:18;;;;;;;;;;;24.80;84.30;;;23.71;38.08;94802.41;10528555;28;1952;-73
2021/10/03 16:08:21;;;;;;;;;;;24.70;85.30;;;23.44;38.26;94801.78;10526991;28;1864;-73
2021/10/03 16:13:24;;;;;;;;;;;24.50;85.40;;;23.24;38.57;94802.38;10529159;28;1975;-73
2021/10/03 16:18:26;;;;;;;;;;;24.20;85.80;;;22.90;39.36;94799.69;10520494;28;1849;-73
2021/10/03 16:23:30;;;;;;;;;;;24.00;86.10;;;22.72;40.10;94804.19;10525072;28;1873;-73
2021/10/03 16:28:37;;;;;;;;;;;23.70;86.80;;;22.47;40.56;94809.38;10531140;28;2053;-75
2021/10/03 16:33:40;;;;;;;;;;;23.50;87.40;;;22.28;41.60;94821.28;10518364;28;2006;-74
2021/10/03 16:38:43;;;;;;;;;;;23.30;88.60;;;22.06;42.59;94809.19;10519266;28;1896;-72
2021/10/03 16:43:46;;;;;;;;;;;23.10;89.40;;;21.76;43.81;94820.91;10518721;28;1940;-74
2021/10/03 16:48:49;;;;;;;;;;;22.90;90.50;;;21.63;44.91;94829.66;10511737;28;2004;-74
2021/10/03 16:53:52;;;;;;;;;;;22.70;91.90;;;21.34;45.87;94828.44;10524607;28;1913;-75
2021/10/03 16:58:55;;;;;;;;;;;22.50;92.70;;;21.25;46.21;94828.66;10526740;28;1236;-75
2021/10/03 17:03:58;;;;;;;;;;;22.30;93.20;;;21.13;45.61;94842.50;10518703;28;1448;-74
2021/10/03 17:09:01;;;;;;;;;;;22.20;92.80;;;21.12;44.84;94843.63;10522644;28;1478;-77
2021/10/03 17:14:03;;;;;;;;;;;22.10;92.40;;;20.92;44.78;94856.53;10522543;28;1968;-73
2021/10/03 17:19:06;;;;;;;;;;;22.00;92.50;;;20.74;45.09;94856.19;10516394;28;1497;-75
2021/10/03 17:24:09;;;;;;;;;;;21.80;92.10;;;20.76;43.98;94860.16;10527167;28;1719;-74
2021/10/03 17:29:12;;;;;;;;;;;21.70;91.50;;;20.44;45.16;94873.13;10531092;28;1467;-75
2021/10/03 17:34:15;;;;;;;;;;;21.60;91.90;;;20.28;45.33;94890.69;10542632;28;1910;-75
2021/10/03 17:39:23;;;;;;;;;;;21.40;92.20;;;20.16;45.68;94886.13;10536647;28;1617;-74
2021/10/03 17:44:26;;;;;;;;;;;21.20;92.40;;;19.97;46.19;94895.84;10534410;28;1380;-73
2021/10/03 17:49:30;;;;;;;;;;;21.10;92.70;;;19.79;46.73;94902.84;10535020;28;1419;-74
2021/10/03 17:54:33;;;;;;;;;;;20.90;93.30;;;19.70;47.27;94900.28;10532491;28;1983;-74
2021/10/03 17:59:36;;;;;;;;;;;20.80;93.60;;;19.62;47.16;94908.66;10531062;28;1949;-75
2021/10/03 18:04:39;;;;;;;;;;;20.70;93.90;;;19.49;47.96;94921.56;10524731;28;1930;-74
2021/10/03 18:09:46;;;;;;;;;;;20.60;94.50;;;19.39;48.52;94924.78;10529786;28;1944;-74
2021/10/03 18:14:50;;;;;;;;;;;20.40;95.10;;;19.15;49.85;94942.06;10521698;28;1910;-74
2021/10/03 18:19:52;;;;;;;;;;;20.30;96.30;;;19.10;49.80;94948.56;10536174;28;1994;-76
2021/10/03 18:24:55;;;;;;;;;;;20.10;96.70;;;18.84;50.74;94959.13;10562271;28;1793;-74
2021/10/03 18:29:58;;;;;;;;;;;20.00;97.20;;;18.74;51.57;94956.88;10575748;28;1932;-76
2021/10/03 18:35:01;;;;;;;;;;;19.80;98.00;;;18.61;52.12;94964.25;10573584;28;2134;-75
2021/10/03 18:40:04;;;;;;;;;;;19.70;98.70;;;18.50;52.56;94974.00;10560711;28;1461;-75
2021/10/03 18:45:07;;;;;;;;;;;19.60;99.20;;;18.51;53.43;94975.59;10544780;28;1480;-72
2021/10/03 18:50:10;;;;;;;;;;;19.50;99.90;;;18.52;53.13;94979.94;10541021;28;1683;-71
2021/10/03 18:55:13;;;;;;;;;;;19.50;99.90;;;18.49;53.68;94984.09;10547786;28;1922;-72
2021/10/03 19:00:20;;;;;;;;;;;19.50;99.90;;;18.49;54.43;94989.56;10563568;28;1280;-72
2021/10/03 19:05:23;;;;;;;;;;;19.40;99.90;;;18.41;53.94;95001.34;10554201;28;1941;-72
2021/10/03 19:10:28;;;;;;;;;;;19.40;99.90;;;18.26;55.21;94986.53;10548778;28;2111;-72
2021/10/03 19:15:31;;;;;;;;;;;19.30;99.90;;;18.22;53.43;94985.63;10544353;28;2071;-72
2021/10/03 19:20:34;;;;;;;;;;;19.20;99.90;;;18.32;54.35;94998.78;10552059;28;2055;-72
2021/10/03 19:25:37;;;;;;;;;;;19.30;99.90;;;18.31;52.89;95010.75;10544871;28;1848;-71
2021/10/03 19:30:43;;;;;;;;;;;19.30;99.90;;;18.39;52.97;95016.44;10545676;28;1896;-72
2021/10/03 19:35:46;;;;;;;;;;;19.30;99.90;;;18.54;52.15;95019.25;10536923;28;1923;-72
2021/10/03 19:40:49;;;;;;;;;;;19.40;99.90;;;18.57;51.58;95026.72;10530665;28;1854;-72
2021/10/03 19:45:52;;;;;;;;;;;19.50;99.90;;;18.67;52.00;95032.88;10531576;28;1920;-71
2021/10/03 19:50:55;;;;;;;;;;;19.60;99.90;;;18.62;52.89;95042.03;10525148;28;1927;-72
2021/10/03 19:55:58;;;;;;;;;;;19.50;99.90;;;18.94;49.60;95053.91;10526267;28;1984;-76
2021/10/03 20:01:01;;;;;;;;;;;19.80;98.50;;;18.88;48.81;95107.81;10536604;28;1886;-74
2021/10/03 20:06:04;;;;;;;;;;;19.80;97.40;;;18.68;50.32;95111.47;10517068;28;1987;-74
2021/10/03 20:11:07;;;;;;;;;;;19.80;98.20;;;18.53;50.79;95117.59;10520134;28;1931;-74
2021/10/03 20:16:10;;;;;;;;;;;19.60;98.40;;;18.40;51.28;95124.94;10520714;28;1933;-74
2021/10/03 20:21:13;;;;;;;;;;;19.50;99.10;;;18.22;52.17;95137.16;10517565;28;2103;-73
2021/10/03 20:26:16;;;;;;;;;;;19.30;99.50;;;18.05;52.94;95147.09;10520110;28;2014;-73
2021/10/03 20:31:18;;;;;;;;;;;19.10;99.90;;;18.01;52.97;95164.44;10518302;28;1987;-74
2021/10/03 20:36:21;;;;;;;;;;;19.00;99.90;;;17.96;53.62;95168.16;10511004;28;2025;-75
2021/10/03 20:41:24;;;;;;;;;;;18.90;99.90;;;17.91;54.05;95187.38;10525815;28;2057;-74
2021/10/03 20:46:27;;;;;;;;;;;18.90;99.90;;;18.01;54.57;95197.84;10517562;28;1904;-75
2021/10/03 20:51:30;;;;;;;;;;;19.00;99.90;;;18.04;55.91;95212.69;10523250;28;1793;-76
2021/10/03 20:56:33;;;;;;;;;;;19.00;99.90;;;17.81;61.37;95234.81;10522097;28;1963;-74
2021/10/03 21:01:36;;;;;;;;;;;19.00;99.90;;;17.53;65.95;95248.09;10518241;28;2160;-73
2021/10/03 21:06:39;;;;;;;;;;;18.70;99.90;;;17.32;70.80;95279.09;10523978;28;1877;-75
2021/10/03 21:11:41;;;;;;;;;;;18.50;99.90;;;17.14;75.46;95297.38;10524931;28;1865;-75
2021/10/03 21:16:44;;;;;;;;;;;18.30;99.90;;;16.91;78.15;95321.25;10528220;28;1955;-75
2021/10/03 21:21:47;;;;;;;;;;;18.00;99.90;;;16.68;80.66;95345.09;10529714;28;2055;-74
2021/10/03 21:26:50;;;;;;;;;;;17.80;99.90;;;16.47;83.52;95363.94;10532082;28;1925;-74
2021/10/03 21:31:53;;;;;;;;;;;17.60;99.90;;;16.35;84.71;95366.50;10532547;28;1929;-74
2021/10/03 21:36:56;;;;;;;;;;;17.50;99.90;;;16.20;86.62;95384.84;10525304;28;1937;-74
2021/10/03 21:42:18;;;;;;;;;;;17.30;99.90;;;16.08;88.28;95409.09;10530250;28;1931;-76
2021/10/03 21:47:41;;;;;;;;;;;17.20;99.90;;;15.93;88.30;95412.25;10522603;28;1979;-73
2021/10/03 21:53:04;;;;;;;;;;;17.00;99.90;;;15.76;88.52;95437.41;10526396;28;1980;-74
2021/10/03 21:58:27;;;;;;;;;;;16.90;99.90;;;15.72;88.67;95441.06;10531801;28;1996;-74
2021/10/03 22:03:49;;;;;;;;;;;16.80;99.90;;;15.58;88.12;95446.53;10528979;28;1923;-74
2021/10/03 22:09:12;;;;;;;;;;;16.70;99.90;;;15.39;88.87;95461.13;10527170;28;1924;-74
2021/10/03 22:14:34;;;;;;;;;;;16.50;99.90;;;15.34;87.98;95468.63;10528649;28;1935;-74
2021/10/03 22:19:55;;;;;;;;;;;16.40;99.90;;;15.27;87.91;95462.81;10529130;28;2083;-74
2021/10/03 22:25:17;;;;;;;;;;;16.30;99.90;;;15.20;87.58;95468.66;10529039;28;1825;-73
2021/10/03 22:30:38;;;;;;;;;;;16.30;99.90;;;15.10;87.74;95479.78;10526225;28;2075;-73
2021/10/03 22:35:59;;;;;;;;;;;16.10;99.90;;;15.14;87.05;95483.44;10528885;28;2026;-74
2021/10/03 22:41:21;;;;;;;;;;;16.10;99.90;;;15.07;87.23;95502.84;10530881;28;1921;-75
2021/10/03 22:46:42;;;;;;;;;;;16.10;99.90;;;15.02;87.05;95505.69;10521471;28;1971;-75
2021/10/03 22:52:03;;;;;;;;;;;16.00;99.90;;;14.94;87.24;95503.69;10530185;28;1884;-75
2021/10/03 22:57:24;;;;;;;;;;;16.00;99.90;;;14.86;87.99;95509.84;10526396;28;1964;-74
2021/10/03 23:02:46;;;;;;;;;;;15.90;99.90;;;14.78;88.73;95507.88;10524483;28;1960;-75
2021/10/03 23:08:07;;;;;;;;;;;15.90;99.90;;;14.72;89.37;95504.50;10524672;28;2064;-75
2021/10/03 23:13:29;;;;;;;;;;;15.80;99.90;;;14.75;89.21;95508.50;10529051;28;1957;-75
2021/10/03 23:18:50;;;;;;;;;;;15.70;99.90;;;14.78;89.14;95494.34;10528345;28;1881;-74